• Join FlightAware (Why Join?)
  • Login
  • US Flag 
08:28AM EDT


 

Airport Tracker/Info


-or-


 

Live Flight TrackerFlight Track Log ✈ DAL245 ✈ 05-May-2013 ✈ LIRF / FCO - KJFK

Flight Track Log - Related Links

Times and Time Zones

All times are in EDT time to prevent confusion due to time zone crossing. See the DAL245 flight status page for this flight to view local times or setup timezone preferences in your user account.

Time Position Orientation Groundspeed Altitude Reporting Facility
EDT Latitude Longitude Course Direction KTS MPH feet Rate Location/Type
07:09AM 41.8572 12.1045 296° West  Level FlightAware Approximate
07:10AM 41.9096 11.9580 296° West  Level FlightAware Approximate
07:10AM 41.8170 12.2260 296° West 167 192 500  Level FlightAware
07:11AM 41.9619 11.8112 296° West  Level FlightAware Approximate
07:11AM 41.8370 12.2120 332° Northwest 168 193 1,700  Level FlightAware
07:11AM 41.8390 12.2000 283° West 175 201 2,000 1,500 Climbing FlightAware
07:12AM 41.8310 12.1680 251° West 183 211 2,700 1,260 Climbing FlightAware
07:12AM 41.8190 12.1380 242° Southwest 185 213 3,300 840 Climbing FlightAware
07:13AM 41.8080 12.1100 242° Southwest 216 249 3,500 420 Climbing FlightAware
07:13AM 41.8020 12.0900 248° West 235 270 3,600 600 Climbing FlightAware
07:14AM 41.8020 12.0160 270° West 295 339 4,100 660 Climbing FlightAware
07:14AM 41.8030 11.9670 272° West 327 376 4,400 900 Climbing FlightAware
07:14AM 41.8030 11.9360 270° West 342 394 4,700 2,100 Climbing FlightAware
07:15AM 41.8030 11.8710 270° West 345 397 6,000 2,820 Climbing FlightAware
07:15AM 41.8030 11.8180 270° West 338 389 7,300 3,000 Climbing FlightAware
07:16AM 41.8030 11.7660 270° West 335 386 8,500 2,280 Climbing FlightAware
07:16AM 41.8040 11.7060 271° West 341 392 9,400 1,860 Climbing FlightAware
07:16AM 41.8040 11.6720 270° West 345 397 9,900 2,100 Climbing FlightAware
07:17AM 41.8040 11.5740 270° West 351 404 11,500 1,860 Climbing FlightAware
07:18AM 41.8050 11.4860 271° West 362 417 12,600 1,680 Climbing FlightAware
07:18AM 41.8050 11.3960 270° West 368 423 13,800 1,680 Climbing FlightAware
07:19AM 41.8150 11.3290 281° West 376 433 14,600 1,440 Climbing FlightAware
07:19AM 41.8540 11.2680 311° West 379 436 15,400 1,260 Climbing FlightAware
07:20AM 41.9210 11.1750 314° West 401 461 16,400 1,260 Climbing FlightAware
07:21AM 41.9740 11.1030 315° West 413 475 17,300 1,380 Climbing FlightAware
07:22AM 42.0350 11.0210 315° West 413 475 18,400 1,440 Climbing FlightAware
07:22AM 42.0900 10.9470 315° West 415 478 19,400 1,320 Climbing FlightAware
07:23AM 42.1410 10.8650 310° West 425 489 20,200 1,080 Climbing FlightAware
07:24AM 42.1950 10.7720 308° West 429 494 21,000 1,080 Climbing FlightAware
07:24AM 42.2440 10.6860 308° West 434 499 21,800 1,080 Climbing FlightAware
07:25AM 42.3020 10.5860 308° West 445 512 22,600 1,020 Climbing FlightAware
07:26AM 42.3530 10.4970 308° West 451 519 23,300 1,080 Climbing FlightAware
07:27AM 42.4050 10.4080 308° West 454 522 24,100 960 Climbing FlightAware
07:27AM 42.4630 10.3070 308° West 455 524 24,700 780 Climbing FlightAware
07:28AM 42.4990 10.2350 304° West 461 531 25,100 780 Climbing FlightAware
07:28AM 42.5300 10.1580 299° West 465 535 25,500 840 Climbing FlightAware
07:29AM 42.5720 10.0560 299° West 470 541 26,100 780 Climbing FlightAware
07:30AM 42.6140 9.9530 299° West 473 544 26,600 660 Climbing FlightAware
07:30AM 42.6560 9.8490 299° West 476 548 27,000 660 Climbing FlightAware
07:31AM 42.7280 9.6710 299° West 477 549 27,900 840 Climbing FlightAware
07:34AM 42.8031 9.3387 294° West  Level FlightAware Approximate
07:34AM 42.9140 9.2080 294° West 481 554 30,400  Level FlightAware
07:35AM 42.9560 9.1020 298° West 480 552 31,000 540 Climbing FlightAware
07:36AM 43.0030 8.9840 299° West 484 557 31,200 240 Climbing FlightAware
07:36AM 43.0480 8.8700 298° West 496 571 31,400 240 Climbing FlightAware
07:37AM 43.0750 8.7740 291° West 498 573 31,500 300 Climbing FlightAware
07:38AM 43.1120 8.6180 288° West 501 577 31,900 840 Climbing FlightAware
07:38AM 43.1390 8.5020 288° West 492 566 32,800 1,080 Climbing FlightAware
07:39AM 43.1700 8.3650 287° West 483 556 33,500 660 Climbing FlightAware
07:40AM 43.1960 8.2450 287° West 483 556 33,800 300 Climbing FlightAware
07:41AM 43.2280 8.1110 288° West 488 562 34,000 120 Climbing FlightAware
07:41AM 43.2560 7.9920 288° West 482 555 34,000  Level FlightAware
07:42AM 43.2830 7.8770 288° West 481 554 34,000  Level FlightAware
07:43AM 43.3130 7.7490 288° West 482 555 34,000  Level FlightAware
07:43AM 43.3380 7.6380 287° West 482 555 34,000  Level FlightAware
07:44AM 43.3690 7.5030 288° West 484 557 34,000  Level FlightAware
07:45AM 43.3970 7.3840 288° West 484 557 34,000 180 Level FlightAware
07:46AM 43.4270 7.2500 287° West 483 556 34,300 480 Climbing FlightAware
07:46AM 43.4660 7.1400 296° West 483 556 34,700 480 Climbing FlightAware
07:47AM 43.5280 7.0530 315° West 482 555 35,000 540 Climbing FlightAware
07:48AM 43.5940 6.9600 314° West 478 550 35,500 660 Climbing FlightAware
07:48AM 43.6580 6.8700 315° West 473 544 36,000 300 Climbing FlightAware
07:49AM 43.7320 6.7660 315° West 475 547 36,000  Level FlightAware
07:50AM 43.8130 6.6520 315° West 475 547 36,000  Level FlightAware
07:51AM 43.8740 6.5660 315° West 476 548 36,000  Level FlightAware
07:51AM 43.9350 6.4810 315° West 478 550 36,000  Level FlightAware
07:52AM 44.0070 6.3780 314° West 478 550 36,000  Level FlightAware
07:53AM 44.0690 6.2890 314° West 478 550 36,000  Level FlightAware
07:53AM 44.1360 6.1940 315° West 477 549 36,000  Level FlightAware
07:54AM 44.1970 6.1060 314° West 475 547 36,000  Level FlightAware
07:55AM 44.2680 6.0030 314° West 475 547 36,000  Level FlightAware
07:56AM 44.3290 5.9150 314° West 475 547 36,000  Level FlightAware
07:56AM 44.3960 5.8170 314° West 475 547 36,000  Level FlightAware
07:57AM 44.4570 5.7280 314° West 476 548 36,000  Level FlightAware
07:58AM 44.5150 5.6420 313° West 478 550 36,000  Level FlightAware
07:58AM 44.5880 5.5350 314° West 480 552 36,000  Level FlightAware
07:59AM 44.6480 5.4470 314° West 481 554 36,000  Level FlightAware
08:00AM 44.7170 5.3460 314° West 481 554 36,000  Level FlightAware
08:00AM 44.7790 5.2540 314° West 481 554 36,000  Level FlightAware
08:01AM 44.8380 5.1650 313° West 479 551 36,000  Level FlightAware
08:02AM 44.9100 5.0570 313° West 477 549 36,000  Level FlightAware
08:03AM 44.9690 4.9690 313° West 476 548 36,000  Level FlightAware
08:03AM 45.0280 4.8780 313° West 473 544 36,000  Level FlightAware
08:04AM 45.0640 4.7520 292° West 463 533 36,000  Level FlightAware
08:05AM 45.0860 4.6350 285° West 464 534 36,000  Level FlightAware
08:05AM 45.1130 4.5000 286° West 465 535 36,000  Level FlightAware
08:06AM 45.1350 4.3870 285° West 467 537 36,000  Level FlightAware
08:07AM 45.1610 4.2500 285° West 466 536 36,000  Level FlightAware
08:07AM 45.1760 4.1330 280° West 465 535 36,000  Level FlightAware
08:08AM 45.1900 4.0110 279° West 465 535 36,000  Level FlightAware
08:09AM 45.2050 3.8940 280° West 465 535 36,000  Level FlightAware
08:10AM 45.2220 3.7600 280° West 464 534 36,000  Level FlightAware
08:10AM 45.2370 3.6370 280° West 464 534 36,000  Level FlightAware
08:11AM 45.2530 3.5050 280° West 464 534 36,000  Level FlightAware
08:12AM 45.2690 3.3730 280° West 464 534 36,000  Level FlightAware
08:13AM 45.2830 3.2500 279° West 466 536 36,000  Level FlightAware
08:13AM 45.3020 3.0880 280° West 467 537 36,000  Level FlightAware
08:14AM 45.3140 2.9860 280° West 466 536 36,000  Level FlightAware
08:15AM 45.3300 2.8490 279° West 464 534 36,000  Level FlightAware
08:15AM 45.3430 2.7260 279° West 462 532 36,000  Level FlightAware
08:16AM 45.3580 2.6000 280° West 461 531 36,000  Level FlightAware
08:17AM 45.3720 2.4740 279° West 460 529 36,000  Level FlightAware
08:17AM 45.3850 2.3550 279° West 461 531 36,000  Level FlightAware
08:18AM 45.4000 2.2170 279° West 460 529 36,000  Level FlightAware
08:19AM 45.4130 2.0930 279° West 459 528 36,000  Level FlightAware
08:20AM 45.4280 1.9560 279° West 459 528 36,000  Level FlightAware
08:20AM 45.4400 1.8360 278° West 461 531 36,000  Level FlightAware
08:21AM 45.4530 1.7190 279° West 462 532 36,000  Level FlightAware
08:22AM 45.4670 1.5830 278° West 460 529 36,000  Level FlightAware
08:22AM 45.4790 1.4650 278° West 460 529 36,000  Level FlightAware
08:23AM 45.4920 1.3330 278° West 461 531 36,000  Level FlightAware
08:24AM 45.5060 1.1780 277° West 461 531 36,000  Level FlightAware
08:25AM 45.5150 1.0760 277° West 461 531 36,000  Level FlightAware
08:27AM 45.6065 0.7703 293° West  Level Estimated
08:28AM 45.6548 0.6076 293° West  Level Estimated
08:29AM 45.7029 0.4447 293° West  Level Estimated
08:30AM 45.7507 0.2814 293° West  Level Estimated
08:31AM 45.7982 0.1179 293° West  Level Estimated
08:32AM 45.8456 -0.0460 293° West  Level Estimated
08:33AM 45.8927 -0.2101 292° West  Level Estimated
08:34AM 45.9395 -0.3744 292° West  Level Estimated
08:35AM 45.9862 -0.5391 292° West  Level Estimated
08:35AM 45.6720 -0.7310 292° West 458 527 36,000  Level FlightAware
08:37AM 45.7635 -1.0535 292° West  Level Estimated
08:38AM 45.8097 -1.2179 292° West  Level Estimated
08:39AM 45.8557 -1.3825 292° West  Level Estimated
08:39AM 45.7310 -1.5690 292° West 468 539 36,000  Level FlightAware
08:40AM 45.7470 -1.7880 276° West 472 543 36,000  Level FlightAware
08:41AM 45.7580 -1.9520 276° West 475 547 36,000  Level FlightAware
08:42AM 45.7690 -2.1170 276° West 475 547 36,000  Level FlightAware
08:43AM 45.7770 -2.2330 276° West 476 548 36,000  Level FlightAware
08:43AM 45.7850 -2.3660 275° West 476 548 36,000  Level FlightAware
08:44AM 45.7930 -2.5040 275° West 476 548 36,000  Level FlightAware
08:45AM 45.8020 -2.6460 275° West 476 548 36,000  Level FlightAware
08:46AM 45.8180 -2.9360 275° West 478 550 36,000  Level FlightAware
08:46AM 45.7620 -2.0090 95° East 36,000  Level FlightAware
08:48AM 45.8310 -3.1570 275° West 479 551 36,000  Level FlightAware
08:48AM 45.8370 -3.2750 274° West 479 551 36,000  Level FlightAware
08:49AM 45.8450 -3.4130 275° West 479 551 36,000  Level FlightAware
08:50AM 45.8520 -3.5450 274° West 480 552 36,000  Level FlightAware
08:50AM 45.8600 -3.7130 274° West 480 552 36,000  Level FlightAware
08:51AM 45.8680 -3.8950 274° West 481 554 36,000  Level FlightAware
08:52AM 45.8760 -4.0310 275° West 481 554 36,000  Level FlightAware
08:53AM 45.8820 -4.1610 274° West 480 552 36,000  Level FlightAware
08:54AM 45.8870 -4.2910 273° West 480 552 36,000  Level FlightAware
08:54AM 45.8930 -4.4380 273° West 479 551 36,000  Level FlightAware
08:55AM 45.8920 -4.4080 93° East 479 551 36,000  Level FlightAware
08:56AM 45.8960 -4.5170 273° West 479 551 36,000  Level FlightAware
08:57AM 45.9010 -4.6520 273° West 479 551 36,000  Level FlightAware
08:57AM 45.9050 -4.7600 273° West 479 551 36,000  Level FlightAware
08:58AM 45.9090 -4.8680 273° West 479 551 36,000  Level FlightAware
08:59AM 45.9130 -4.9760 273° West 479 551 36,000  Level FlightAware
08:59AM 45.9170 -5.0840 273° West 479 551 36,000  Level FlightAware
09:00AM 45.9220 -5.2190 273° West 479 551 36,000  Level FlightAware
09:01AM 45.9260 -5.3280 273° West 479 551 36,000  Level FlightAware
09:01AM 45.9300 -5.4360 273° West 479 551 36,000  Level FlightAware
09:02AM 45.9340 -5.5440 273° West 479 551 36,000  Level FlightAware
09:03AM 45.9380 -5.6520 273° West 479 551 36,000  Level FlightAware
09:04AM 45.9420 -5.7870 272° West 479 551 36,000  Level FlightAware
09:04AM 45.9460 -5.8960 273° West 479 551 36,000  Level FlightAware
09:07AM 46.0364 -6.2682 289° West  Level Estimated
09:08AM 46.0768 -6.4366 289° West  Level Estimated
09:09AM 46.1169 -6.6051 289° West  Level Estimated
09:10AM 46.1568 -6.7739 289° West  Level Estimated
09:11AM 46.1964 -6.9430 289° West  Level Estimated
09:12AM 46.2358 -7.1123 289° West  Level Estimated
09:13AM 46.2750 -7.2818 289° West  Level Estimated
09:14AM 46.3139 -7.4516 288° West  Level Estimated
09:15AM 46.3525 -7.6216 288° West  Level Estimated
09:16AM 46.3909 -7.7919 288° West  Level Estimated
09:17AM 46.4290 -7.9624 288° West  Level Estimated
09:18AM 46.4669 -8.1331 288° West  Level Estimated
09:19AM 46.5046 -8.3048 288° West  Level Estimated
09:20AM 46.5421 -8.4766 288° West  Level Estimated
09:21AM 46.5794 -8.6487 288° West  Level Estimated
09:22AM 46.6164 -8.8211 287° West  Level Estimated
09:23AM 46.6531 -8.9937 287° West  Level Estimated
09:24AM 46.6896 -9.1665 287° West  Level Estimated
09:25AM 46.7258 -9.3395 287° West  Level Estimated
09:26AM 46.7617 -9.5128 287° West  Level Estimated
09:27AM 46.7974 -9.6863 287° West  Level Estimated
09:28AM 46.8329 -9.8600 287° West  Level Estimated
09:29AM 46.8680 -10.0340 287° West  Level Estimated
09:30AM 46.9029 -10.2081 286° West  Level Estimated
09:31AM 46.9375 -10.3826 286° West  Level Estimated
09:32AM 46.9719 -10.5572 286° West  Level Estimated
09:33AM 47.0060 -10.7321 286° West  Level Estimated
09:34AM 47.0399 -10.9072 286° West  Level Estimated
09:35AM 47.0734 -11.0825 286° West  Level Estimated
09:36AM 47.1067 -11.2580 286° West  Level Estimated
09:37AM 47.1398 -11.4338 286° West  Level Estimated
09:38AM 47.1725 -11.6097 285° West  Level Estimated
09:39AM 47.2050 -11.7859 285° West  Level Estimated
09:40AM 47.2372 -11.9623 285° West  Level Estimated
09:41AM 47.2692 -12.1389 285° West  Level Estimated
09:42AM 47.3009 -12.3157 285° West  Level Estimated
09:43AM 47.3323 -12.4928 285° West  Level Estimated
09:44AM 47.3634 -12.6700 285° West  Level Estimated
09:45AM 47.3943 -12.8474 284° West  Level Estimated
09:46AM 47.4249 -13.0251 284° West  Level Estimated
09:47AM 47.4552 -13.2030 284° West  Level Estimated
09:48AM 47.4852 -13.3810 284° West  Level Estimated
09:49AM 47.5150 -13.5593 284° West  Level Estimated
09:50AM 47.5445 -13.7378 284° West  Level Estimated
09:51AM 47.5737 -13.9164 284° West  Level Estimated
09:52AM 47.6026 -14.0953 284° West  Level Estimated
09:53AM 47.6312 -14.2744 283° West  Level Estimated
09:54AM 47.6596 -14.4536 283° West  Level Estimated
09:55AM 47.6877 -14.6331 283° West  Level Estimated
09:56AM 47.7155 -14.8127 283° West  Level Estimated
09:57AM 47.7430 -14.9926 283° West  Level Estimated
09:58AM 47.7703 -15.1726 283° West  Level Estimated
09:59AM 47.7973 -15.3528 283° West  Level Estimated
10:00AM 47.8240 -15.5332 282° West  Level Estimated
10:01AM 47.8504 -15.7138 282° West  Level Estimated
10:02AM 47.8765 -15.8946 282° West  Level Estimated
10:03AM 47.9023 -16.0756 282° West  Level Estimated
10:04AM 47.9279 -16.2567 282° West  Level Estimated
10:05AM 47.9531 -16.4380 282° West  Level Estimated
10:06AM 47.9781 -16.6195 282° West  Level Estimated
10:07AM 48.0028 -16.8011 282° West  Level Estimated
10:08AM 48.0272 -16.9830 281° West  Level Estimated
10:09AM 48.0513 -17.1650 281° West  Level Estimated
10:10AM 48.0752 -17.3472 281° West  Level Estimated
10:11AM 48.0987 -17.5295 281° West  Level Estimated
10:12AM 48.1220 -17.7120 281° West  Level Estimated
10:13AM 48.1450 -17.8947 281° West  Level Estimated
10:14AM 48.1676 -18.0775 281° West  Level Estimated
10:15AM 48.1900 -18.2605 280° West  Level Estimated
10:16AM 48.2121 -18.4437 280° West  Level Estimated
10:17AM 48.2339 -18.6270 280° West  Level Estimated
10:18AM 48.2555 -18.8105 280° West  Level Estimated
10:19AM 48.2767 -18.9941 280° West  Level Estimated
10:20AM 48.2976 -19.1779 280° West  Level Estimated
10:21AM 48.3182 -19.3618 280° West  Level Estimated
10:22AM 48.3386 -19.5458 280° West  Level Estimated
10:23AM 48.3586 -19.7301 279° West  Level Estimated
10:24AM 48.3784 -19.9144 279° West  Level Estimated
10:25AM 48.3978 -20.0989 279° West  Level Estimated
10:26AM 48.4170 -20.2836 279° West  Level Estimated
10:27AM 48.4359 -20.4683 279° West  Level Estimated
10:28AM 48.4544 -20.6533 279° West  Level Estimated
10:29AM 48.4727 -20.8383 279° West  Level Estimated
10:30AM 48.4907 -21.0235 278° West  Level Estimated
10:31AM 48.5084 -21.2088 278° West  Level Estimated
10:32AM 48.5258 -21.3942 278° West  Level Estimated
10:33AM 48.5429 -21.5798 278° West  Level Estimated
10:34AM 48.5597 -21.7655 278° West  Level Estimated
10:35AM 48.5761 -21.9513 278° West  Level Estimated
10:36AM 48.5923 -22.1373 278° West  Level Estimated
10:37AM 48.6082 -22.3233 277° West  Level Estimated
10:38AM 48.6238 -22.5095 277° West  Level Estimated
10:39AM 48.6391 -22.6958 277° West  Level Estimated
10:40AM 48.6541 -22.8822 277° West  Level Estimated
10:41AM 48.6688 -23.0687 277° West  Level Estimated
10:42AM 48.6832 -23.2553 277° West  Level Estimated
10:43AM 48.6973 -23.4420 277° West  Level Estimated
10:44AM 48.7110 -23.6288 276° West  Level Estimated
10:45AM 48.7245 -23.8157 276° West  Level Estimated
10:46AM 48.7377 -24.0028 276° West  Level Estimated
10:47AM 48.7506 -24.1899 276° West  Level Estimated
10:48AM 48.7631 -24.3771 276° West  Level Estimated
10:49AM 48.7754 -24.5644 276° West  Level Estimated
10:50AM 48.7874 -24.7518 276° West  Level Estimated
10:51AM 48.7990 -24.9393 275° West  Level Estimated
10:52AM 48.8104 -25.1269 275° West  Level Estimated
10:53AM 48.8215 -25.3145 275° West  Level Estimated
10:54AM 48.8322 -25.5023 275° West  Level Estimated
10:55AM 48.8427 -25.6901 275° West  Level Estimated
10:56AM 48.8528 -25.8780 275° West  Level Estimated
10:57AM 48.8626 -26.0659 275° West  Level Estimated
10:58AM 48.8722 -26.2540 274° West  Level Estimated
10:59AM 48.8814 -26.4421 274° West  Level Estimated
11:00AM 48.8903 -26.6303 274° West  Level Estimated
11:01AM 48.8989 -26.8185 274° West  Level Estimated
11:02AM 48.9072 -27.0068 274° West  Level Estimated
11:03AM 48.9152 -27.1952 274° West  Level Estimated
11:04AM 48.9229 -27.3836 274° West  Level Estimated
11:05AM 48.9303 -27.5721 273° West  Level Estimated
11:06AM 48.9374 -27.7607 273° West  Level Estimated
11:07AM 48.9441 -27.9492 273° West  Level Estimated
11:08AM 48.9506 -28.1379 273° West  Level Estimated
11:09AM 48.9567 -28.3266 273° West  Level Estimated
11:10AM 48.9626 -28.5153 273° West  Level Estimated
11:11AM 48.9681 -28.7041 273° West  Level Estimated
11:12AM 48.9734 -28.8929 272° West  Level Estimated
11:13AM 48.9783 -29.0818 272° West  Level Estimated
11:14AM 48.9829 -29.2707 272° West  Level Estimated
11:15AM 48.9872 -29.4596 272° West  Level Estimated
11:16AM 48.9912 -29.6486 272° West  Level Estimated
11:17AM 48.9949 -29.8376 272° West  Level Estimated
11:18AM 48.9983 -30.0266 272° West  Level Estimated
11:19AM 49.0013 -30.2156 271° West  Level Estimated
11:20AM 49.0041 -30.4047 271° West  Level Estimated
11:21AM 49.0065 -30.5938 271° West  Level Estimated
11:22AM 49.0087 -30.7829 271° West  Level Estimated
11:23AM 49.0105 -30.9720 271° West  Level Estimated
11:24AM 49.0120 -31.1611 271° West  Level Estimated
11:25AM 49.0133 -31.3503 271° West  Level Estimated
11:26AM 49.0142 -31.5394 270° West  Level Estimated
11:27AM 49.0148 -31.7285 270° West  Level Estimated
11:28AM 49.0151 -31.9177 270° West  Level Estimated
11:29AM 49.0150 -32.1069 270° West  Level Estimated
11:30AM 49.0147 -32.2960 270° West  Level Estimated
11:31AM 49.0141 -32.4852 270° West  Level Estimated
11:32AM 49.0131 -32.6743 270° West  Level Estimated
11:33AM 49.0119 -32.8635 269° West  Level Estimated
11:34AM 49.0103 -33.0526 269° West  Level Estimated
11:35AM 49.0084 -33.2417 269° West  Level Estimated
11:36AM 49.0062 -33.4308 269° West  Level Estimated
11:37AM 49.0037 -33.6199 269° West  Level Estimated
11:38AM 49.0009 -33.8089 269° West  Level Estimated
11:39AM 48.9978 -33.9980 269° West  Level Estimated
11:40AM 48.9944 -34.1870 268° West  Level Estimated
11:41AM 48.9907 -34.3760 268° West  Level Estimated
11:42AM 48.9866 -34.5649 268° West  Level Estimated
11:43AM 48.9823 -34.7539 268° West  Level Estimated
11:44AM 48.9776 -34.9428 268° West  Level Estimated
11:45AM 48.9727 -35.1316 268° West  Level Estimated
11:46AM 48.9674 -35.3204 268° West  Level Estimated
11:47AM 48.9618 -35.5092 267° West  Level Estimated
11:48AM 48.9559 -35.6979 267° West  Level Estimated
11:49AM 48.9497 -35.8866 267° West  Level Estimated
11:50AM 48.9432 -36.0753 267° West  Level Estimated
11:51AM 48.9364 -36.2639 267° West  Level Estimated
11:52AM 48.9293 -36.4524 267° West  Level Estimated
11:53AM 48.9219 -36.6409 267° West  Level Estimated
11:54AM 48.9142 -36.8293 266° West  Level Estimated
11:55AM 48.9061 -37.0176 266° West  Level Estimated
11:56AM 48.8978 -37.2059 266° West  Level Estimated
11:57AM 48.8891 -37.3942 266° West  Level Estimated
11:58AM 48.8802 -37.5824 266° West  Level Estimated
11:59AM 48.8709 -37.7705 266° West  Level Estimated
12:00PM 48.8614 -37.9585 266° West  Level Estimated
12:01PM 48.8515 -38.1464 266° West  Level Estimated
12:02PM 48.8413 -38.3343 265° West  Level Estimated
12:03PM 48.8308 -38.5221 265° West  Level Estimated
12:04PM 48.8200 -38.7099 265° West  Level Estimated
12:05PM 48.8089 -38.8975 265° West  Level Estimated
12:06PM 48.7975 -39.0851 265° West  Level Estimated
12:07PM 48.7858 -39.2725 265° West  Level Estimated
12:08PM 48.7738 -39.4599 265° West  Level Estimated
12:09PM 48.7615 -39.6472 264° West  Level Estimated
12:10PM 48.7489 -39.8344 264° West  Level Estimated
12:11PM 48.7360 -40.0215 264° West  Level Estimated
12:12PM 48.7228 -40.2085 264° West  Level Estimated
12:13PM 48.7092 -40.3954 264° West  Level Estimated
12:14PM 48.6954 -40.5822 264° West  Level Estimated
12:15PM 48.6813 -40.7690 264° West  Level Estimated
12:16PM 48.6669 -40.9556 263° West  Level Estimated
12:17PM 48.6521 -41.1420 263° West  Level Estimated
12:18PM 48.6371 -41.3284 263° West  Level Estimated
12:19PM 48.6218 -41.5147 263° West  Level Estimated
12:20PM 48.6061 -41.7008 263° West  Level Estimated
12:21PM 48.5902 -41.8869 263° West  Level Estimated
12:22PM 48.5740 -42.0728 263° West  Level Estimated
12:23PM 48.5574 -42.2586 262° West  Level Estimated
12:24PM 48.5406 -42.4443 262° West  Level Estimated
12:25PM 48.5235 -42.6298 262° West  Level Estimated
12:26PM 48.5061 -42.8153 262° West  Level Estimated
12:27PM 48.4883 -43.0006 262° West  Level Estimated
12:28PM 48.4703 -43.1857 262° West  Level Estimated
12:29PM 48.4520 -43.3708 262° West  Level Estimated
12:30PM 48.4334 -43.5557 261° West  Level Estimated
12:31PM 48.4145 -43.7404 261° West  Level Estimated
12:32PM 48.3953 -43.9250 261° West  Level Estimated
12:33PM 48.3758 -44.1095 261° West  Level Estimated
12:34PM 48.3560 -44.2939 261° West  Level Estimated
12:35PM 48.3359 -44.4781 261° West  Level Estimated
12:36PM 48.3155 -44.6621 261° West  Level Estimated
12:37PM 48.2948 -44.8460 260° West  Level Estimated
12:38PM 48.2739 -45.0298 260° West  Level Estimated
12:39PM 48.2526 -45.2134 260° West  Level Estimated
12:40PM 48.2311 -45.3968 260° West  Level Estimated
12:41PM 48.2092 -45.5801 260° West  Level Estimated
12:42PM 48.1871 -45.7632 260° West  Level Estimated
12:43PM 48.1647 -45.9462 260° West  Level Estimated
12:44PM 48.1419 -46.1290 260° West  Level Estimated
12:45PM 48.1189 -46.3117 259° West  Level Estimated
12:46PM 48.0956 -46.4942 259° West  Level Estimated
12:47PM 48.0720 -46.6765 259° West  Level Estimated
12:48PM 48.0482 -46.8587 259° West  Level Estimated
12:49PM 48.0240 -47.0406 259° West  Level Estimated
12:50PM 47.9996 -47.2224 259° West  Level Estimated
12:51PM 47.9748 -47.4041 259° West  Level Estimated
12:52PM 47.9498 -47.5855 258° West  Level Estimated
12:53PM 47.9245 -47.7668 258° West  Level Estimated
12:54PM 47.8989 -47.9479 258° West  Level Estimated
12:55PM 47.8731 -48.1289 258° West  Level Estimated
12:56PM 47.8469 -48.3096 258° West  Level Estimated
12:57PM 47.8205 -48.4902 258° West  Level Estimated
12:58PM 47.7937 -48.6706 258° West  Level Estimated
12:59PM 47.7667 -48.8507 257° West  Level Estimated
01:00PM 47.7394 -49.0308 257° West  Level Estimated
01:01PM 47.7119 -49.2106 257° West  Level Estimated
01:02PM 47.6840 -49.3902 257° West  Level Estimated
01:03PM 47.6559 -49.5696 257° West  Level Estimated
01:04PM 47.6275 -49.7489 257° West  Level Estimated
01:05PM 47.5988 -49.9279 257° West  Level Estimated
01:06PM 47.5698 -50.1068 257° West  Level Estimated
01:07PM 47.5406 -50.2854 256° West  Level Estimated
01:08PM 47.5111 -50.4638 256° West  Level Estimated
01:09PM 47.4813 -50.6421 256° West  Level Estimated
01:10PM 47.4512 -50.8201 256° West  Level Estimated
01:11PM 47.4208 -50.9980 256° West  Level Estimated
01:12PM 47.3902 -51.1756 256° West  Level Estimated
01:12PM 42.0000 -50.0000 258° West 485 558 38,000  Level New York Oceanic (ODAPS)
01:13PM 47.3593 -51.3530 256° West  Level Estimated
01:14PM 47.3282 -51.5302 256° West  Level Estimated
01:15PM 47.2966 -51.7079 255° West  Level Estimated
01:16PM 47.2647 -51.8854 255° West  Level Estimated
01:17PM 47.2326 -52.0626 255° West  Level Estimated
01:18PM 47.2002 -52.2397 255° West  Level Estimated
01:19PM 41.6581 -52.1173 257° West 485 558 38,000  Level FlightAware Transoceanic
01:20PM 41.6278 -52.2928 257° West 485 558 38,000  Level FlightAware Transoceanic
01:21PM 41.5974 -52.4680 257° West 485 558 38,000  Level FlightAware Transoceanic
01:22PM 41.5666 -52.6431 257° West 485 558 38,000  Level FlightAware Transoceanic
01:23PM 41.5355 -52.8180 257° West 485 558 38,000  Level FlightAware Transoceanic
01:24PM 41.5042 -52.9927 256° West 485 558 38,000  Level FlightAware Transoceanic
01:25PM 41.4727 -53.1673 256° West 485 558 38,000  Level FlightAware Transoceanic
01:26PM 41.4408 -53.3417 256° West 485 558 38,000  Level FlightAware Transoceanic
01:27PM 41.4087 -53.5159 256° West 485 558 38,000  Level FlightAware Transoceanic
01:28PM 41.3764 -53.6900 256° West 485 558 38,000  Level FlightAware Transoceanic
01:29PM 41.3438 -53.8638 256° West 485 558 38,000  Level FlightAware Transoceanic
01:30PM 41.3109 -54.0376 256° West 485 558 38,000  Level FlightAware Transoceanic
01:31PM 41.2777 -54.2111 256° West 485 558 38,000  Level FlightAware Transoceanic
01:32PM 41.2444 -54.3844 256° West 485 558 38,000  Level FlightAware Transoceanic
01:33PM 41.2107 -54.5576 255° West 485 558 38,000  Level FlightAware Transoceanic
01:34PM 41.1768 -54.7306 255° West 485 558 38,000  Level FlightAware Transoceanic
01:35PM 41.1426 -54.9034 255° West 485 558 38,000  Level FlightAware Transoceanic
01:36PM 41.1082 -55.0761 255° West 485 558 38,000  Level FlightAware Transoceanic
01:37PM 41.0735 -55.2485 255° West 485 558 38,000  Level FlightAware Transoceanic
01:38PM 41.0385 -55.4208 255° West 485 558 38,000  Level FlightAware Transoceanic
01:39PM 41.0033 -55.5929 255° West 485 558 38,000  Level FlightAware Transoceanic
01:40PM 40.9678 -55.7648 255° West 485 558 38,000  Level FlightAware Transoceanic
01:41PM 40.9321 -55.9365 255° West 485 558 38,000  Level FlightAware Transoceanic
01:42PM 40.8962 -56.1080 254° West 485 558 38,000  Level FlightAware Transoceanic
01:43PM 40.8599 -56.2794 254° West 485 558 38,000  Level FlightAware Transoceanic
01:44PM 40.8235 -56.4505 254° West 485 558 38,000  Level FlightAware Transoceanic
01:45PM 40.7867 -56.6215 254° West 485 558 38,000  Level FlightAware Transoceanic
01:46PM 40.7497 -56.7923 254° West 485 558 38,000  Level FlightAware Transoceanic
01:47PM 40.7125 -56.9629 254° West 485 558 38,000  Level FlightAware Transoceanic
01:48PM 40.6750 -57.1333 254° West 485 558 38,000  Level FlightAware Transoceanic
01:49PM 40.6373 -57.3035 254° West 485 558 38,000  Level FlightAware Transoceanic
01:50PM 40.5993 -57.4735 254° West 485 558 38,000  Level FlightAware Transoceanic
01:51PM 40.5611 -57.6433 253° West 485 558 38,000  Level FlightAware Transoceanic
01:52PM 40.5226 -57.8129 253° West 485 558 38,000  Level FlightAware Transoceanic
01:53PM 40.4839 -57.9823 253° West 485 558 38,000  Level FlightAware Transoceanic
01:54PM 40.4449 -58.1516 253° West 485 558 38,000  Level FlightAware Transoceanic
01:55PM 40.4057 -58.3206 253° West 485 558 38,000  Level FlightAware Transoceanic
01:56PM 40.3662 -58.4895 253° West 485 558 38,000  Level FlightAware Transoceanic
01:57PM 40.3265 -58.6581 253° West 485 558 38,000  Level FlightAware Transoceanic
01:58PM 40.2865 -58.8265 253° West 485 558 38,000  Level FlightAware Transoceanic
01:59PM 40.2463 -58.9948 253° West 485 558 38,000  Level FlightAware Transoceanic
02:00PM 40.2059 -59.1628 252° West 485 558 38,000  Level FlightAware Transoceanic
02:01PM 40.1652 -59.3307 252° West 485 558 38,000  Level FlightAware Transoceanic
02:02PM 40.1242 -59.4983 252° West 485 558 38,000  Level FlightAware Transoceanic
02:03PM 40.0831 -59.6657 252° West 485 558 38,000  Level FlightAware Transoceanic
02:04PM 40.0416 -59.8330 252° West 485 558 38,000  Level FlightAware Transoceanic
02:05PM 40.0000 -60.0000 263° West 485 558 38,000  Level FlightAware Transoceanic
02:06PM 39.9843 -60.1647 263° West 485 558 38,000  Level FlightAware Transoceanic
02:07PM 39.9683 -60.3293 263° West 485 558 38,000  Level FlightAware Transoceanic
02:08PM 39.9521 -60.4938 263° West 485 558 38,000  Level FlightAware Transoceanic
02:09PM 39.9357 -60.6583 263° West 485 558 38,000  Level FlightAware Transoceanic
02:09PM 40.0000 -60.0000 263° West 448 516 38,000  Level New York Oceanic (ODAPS)
02:10PM 39.9190 -60.8226 262° West 485 558 38,000  Level FlightAware Transoceanic
02:11PM 39.9021 -60.9869 262° West 485 558 38,000  Level FlightAware Transoceanic
02:12PM 39.8850 -61.1511 262° West 485 558 38,000  Level FlightAware Transoceanic
02:13PM 39.8677 -61.3152 262° West 485 558 38,000  Level FlightAware Transoceanic
02:14PM 39.8501 -61.4793 262° West 485 558 38,000  Level FlightAware Transoceanic
02:15PM 39.8537 -61.4457 262° West 448 516 38,000  Level FlightAware Transoceanic
02:16PM 39.8363 -61.6060 262° West 448 516 38,000  Level FlightAware Transoceanic
02:17PM 39.8187 -61.7661 262° West 448 516 38,000  Level FlightAware Transoceanic
02:18PM 39.8009 -61.9262 262° West 448 516 38,000  Level FlightAware Transoceanic
02:19PM 39.7829 -62.0862 262° West 448 516 38,000  Level FlightAware Transoceanic
02:20PM 39.7647 -62.2461 262° West 448 516 38,000  Level FlightAware Transoceanic
02:21PM 39.7462 -62.4060 261° West 448 516 38,000  Level FlightAware Transoceanic
02:22PM 39.7275 -62.5657 261° West 448 516 38,000  Level FlightAware Transoceanic
02:23PM 39.7086 -62.7254 261° West 448 516 38,000  Level FlightAware Transoceanic
02:24PM 39.6895 -62.8849 261° West 448 516 38,000  Level FlightAware Transoceanic
02:25PM 39.6702 -63.0444 261° West 448 516 38,000  Level FlightAware Transoceanic
02:26PM 39.6506 -63.2038 261° West 448 516 38,000  Level FlightAware Transoceanic
02:27PM 39.6309 -63.3631 261° West 448 516 38,000  Level FlightAware Transoceanic
02:28PM 39.6109 -63.5223 261° West 448 516 38,000  Level FlightAware Transoceanic
02:29PM 39.5907 -63.6814 261° West 448 516 38,000  Level FlightAware Transoceanic
02:30PM 39.5702 -63.8405 260° West 448 516 38,000  Level FlightAware Transoceanic
02:31PM 39.5496 -63.9994 260° West 448 516 38,000  Level FlightAware Transoceanic
02:32PM 39.5287 -64.1582 260° West 448 516 38,000  Level FlightAware Transoceanic
02:33PM 39.5077 -64.3169 260° West 448 516 38,000  Level FlightAware Transoceanic
02:34PM 39.4864 -64.4756 260° West 448 516 38,000  Level FlightAware Transoceanic
02:35PM 39.4649 -64.6341 260° West 448 516 38,000  Level FlightAware Transoceanic
02:36PM 39.4431 -64.7926 260° West 448 516 38,000  Level FlightAware Transoceanic
02:37PM 39.4212 -64.9509 260° West 448 516 38,000  Level FlightAware Transoceanic
02:38PM 39.3991 -65.1092 260° West 448 516 38,000  Level FlightAware Transoceanic
02:39PM 39.3767 -65.2673 260° West 448 516 38,000  Level FlightAware Transoceanic
02:40PM 39.3541 -65.4253 259° West 448 516 38,000  Level FlightAware Transoceanic
02:41PM 39.3313 -65.5833 259° West 448 516 38,000  Level FlightAware Transoceanic
02:42PM 39.3083 -65.7411 259° West 448 516 38,000  Level FlightAware Transoceanic
02:43PM 39.2851 -65.8989 259° West 448 516 38,000  Level FlightAware Transoceanic
02:44PM 39.2617 -66.0565 259° West 448 516 38,000  Level FlightAware Transoceanic
02:45PM 39.2380 -66.2140 259° West 448 516 38,000  Level FlightAware Transoceanic
02:45PM 39.2292 -66.3347 259° West 472 543 38,000  Level New York Center
02:46PM 39.2142 -66.3714 259° West 448 516 38,000  Level FlightAware Transoceanic
02:46PM 39.2036 -66.4969 259° West 472 543 38,000  Level New York Center
02:47PM 39.1901 -66.5287 259° West 448 516 38,000  Level FlightAware Transoceanic
02:47PM 39.1778 -66.6511 258° West 466 536 38,000  Level New York Center
02:48PM 39.1659 -66.6859 259° West 448 516 38,000  Level FlightAware Transoceanic
02:48PM 39.1497 -66.8081 257° West 460 529 38,000  Level New York Center
02:49PM 39.1414 -66.8430 259° West 448 516 38,000  Level FlightAware Transoceanic
02:49PM 39.1236 -66.9647 258° West 455 524 38,000  Level New York Center
02:50PM 39.1161 -67.1283 267° West 450 518 38,000  Level New York Center
02:51PM 39.1247 -67.2778 274° West 450 518 38,000  Level New York Center
02:52PM 39.1250 -67.4411 270° West 441 507 38,000  Level New York Center
02:53PM 39.1272 -67.5989 271° West 446 513 38,000  Level New York Center
02:54PM 39.1294 -67.7594 271° West 447 514 38,000  Level New York Center
02:55PM 39.1331 -67.9144 272° West 442 509 38,000  Level New York Center
02:56PM 39.1367 -68.0750 272° West 442 509 38,000  Level New York Center
02:57PM 39.1381 -68.2356 271° West 436 502 38,000  Level New York Center
02:58PM 39.1392 -68.3936 271° West 441 507 38,000  Level New York Center
02:59PM 39.1422 -68.5567 271° West 449 517 38,000  Level New York Center
03:01PM 39.1456 -68.8697 271° West 443 510 38,000  Level New York Center
03:02PM 39.1478 -69.0225 271° West 443 510 38,000  Level New York Center
03:03PM 39.1500 -69.1803 271° West 444 511 38,000  Level New York Center
03:04PM 39.1478 -69.3331 269° West 444 511 38,000  Level New York Center
03:05PM 39.1494 -69.4908 271° West 438 504 38,000  Level New York Center
03:06PM 39.1467 -69.6517 269° West 443 510 38,000  Level New York Center
03:07PM 39.1481 -69.8067 271° West 435 501 38,000  Level New York Center
03:08PM 39.1511 -69.9594 272° West 435 501 38,000  Level New York Center
03:09PM 39.1522 -70.1119 271° West 440 506 38,000  Level New York Center
03:10PM 39.1486 -70.2725 268° West 440 506 38,000  Level New York Center
03:12PM 39.1472 -70.5806 270° West 440 506 38,000  Level New York Center
03:13PM 39.1494 -70.7358 271° West 440 506 38,000  Level New York Center
03:14PM 39.1472 -70.8936 269° West 440 506 38,000  Level New York Center
03:15PM 39.1447 -71.0517 269° West 440 506 38,000  Level New York Center
03:16PM 39.1444 -71.2069 270° West 440 506 38,000  Level New York Center
03:17PM 39.1414 -71.3622 269° West 440 506 38,000 -180 Level New York Center
03:18PM 39.1386 -71.5175 269° West 440 506 37,700 -720 Descending New York Center
03:19PM 39.1372 -71.6753 269° West 440 506 36,700 -1,920 Descending New York Center
03:20PM 39.1339 -71.8306 268° West 440 506 34,000 -2,940 Descending New York Center
03:21PM 39.1428 -71.9911 274° West 440 506 30,800 -2,640 Descending New York Center
03:22PM 39.1828 -72.1392 289° West 440 506 28,800 -1,980 Descending New York Center
03:23PM 39.2414 -72.2797 298° West 425 489 26,900 -1,920 Descending New York Center
03:24PM 39.3083 -72.4075 304° West 430 495 25,000 -1,860 Descending New York Center
03:30PM 39.7144 -73.2295 304° West 372 428 13,300 -1,740 Descending FlightAware ADS-B
03:31PM 39.7433 -73.2891 302° West 374 430 13,000 -480 Descending FlightAware ADS-B
03:31PM 39.7722 -73.3490 302° West 371 427 12,800 -540 Descending FlightAware ADS-B
03:32PM 39.8111 -73.4296 302° West 367 422 12,400 -900 Descending FlightAware ADS-B
03:33PM 39.8383 -73.4861 302° West 367 422 11,700 -1,500 Descending FlightAware ADS-B
03:33PM 39.8687 -73.5493 302° West 361 415 10,800 -1,140 Descending FlightAware ADS-B
03:34PM 39.9150 -73.6470 302° West 308 354 10,000 -1,140 Descending FlightAware
03:35PM 39.9370 -73.6920 303° West 293 337 9,200 -1,440 Descending FlightAware
03:35PM 39.9550 -73.7290 302° West 294 338 8,700 -600 Descending FlightAware
03:36PM 39.9750 -73.7710 302° West 290 334 8,700  Level FlightAware
03:36PM 40.0060 -73.8184 311° West 289 333 8,700  Level FlightAware ADS-B
03:36PM 40.0211 -73.8252 341° North 287 330 8,700  Level FlightAware ADS-B
03:36PM 40.0265 -73.8258 355° North 286 329 8,700  Level FlightAware ADS-B
03:37PM 40.0367 -73.8245 North 284 327 8,700  Level FlightAware ADS-B
03:37PM 40.0563 -73.8179 14° North 286 329 8,700 -180 Level FlightAware ADS-B
03:37PM 40.0805 -73.8090 16° North 285 328 8,600 -1,020 Descending FlightAware ADS-B
03:38PM 40.1269 -73.7919 16° North 284 327 7,800 -1,380 Descending FlightAware ADS-B
03:38PM 40.1667 -73.7661 26° Northeast 284 327 7,000 -1,200 Descending FlightAware ADS-B
03:39PM 40.1742 -73.7488 60° Northeast 273 314 6,900 -1,140 Descending FlightAware ADS-B
03:39PM 40.1980 -73.7030 56° Northeast 272 313 6,100 -1,320 Descending FlightAware
03:39PM 40.2196 -73.6957 14° North 271 312 5,800 -1,440 Descending FlightAware ADS-B
03:40PM 40.2591 -73.7409 319° Northwest 277 319 4,700 -1,320 Descending FlightAware ADS-B
03:41PM 40.2700 -73.8010 283° West 275 316 4,000 -1,200 Descending FlightAware
03:41PM 40.2772 -73.8320 287° West 273 314 3,600 -1,380 Descending FlightAware ADS-B
03:41PM 40.2838 -73.8637 285° West 271 312 3,200 -900 Descending FlightAware ADS-B
03:42PM 40.2950 -73.9250 283° West 255 293 2,700 -600 Descending FlightAware
03:42PM 40.2985 -73.9432 284° West 241 277 2,700  Level FlightAware ADS-B
03:43PM 40.3026 -73.9655 284° West 241 277 2,700  Level FlightAware ADS-B
03:43PM 40.3093 -74.0016 284° West 200 230 2,700  Level FlightAware ADS-B
03:43PM 40.3138 -74.0251 284° West 196 226 2,700  Level FlightAware ADS-B
03:44PM 40.3183 -74.0356 299° West 193 222 2,700  Level FlightAware ADS-B
03:44PM 40.3255 -74.0468 310° West 192 221 2,700  Level FlightAware ADS-B
03:44PM 40.3332 -74.0539 325° Northwest 188 216 2,700  Level FlightAware ADS-B
03:44PM 40.3382 -74.0554 347° North 179 206 2,700  Level FlightAware ADS-B
03:44PM 40.3459 -74.0546 North 177 204 2,700  Level FlightAware ADS-B
03:44PM 40.3535 -74.0512 19° North 171 197 2,700  Level FlightAware ADS-B
03:45PM 40.3683 -74.0439 21° North 173 199 2,700  Level FlightAware ADS-B
03:45PM 40.3849 -74.0356 21° North 174 200 2,700  Level FlightAware ADS-B
03:45PM 40.4029 -74.0266 21° North 175 201 2,700  Level FlightAware ADS-B
03:46PM 40.4148 -74.0206 21° North 172 198 2,700  Level FlightAware ADS-B
03:46PM 40.4337 -74.0110 21° North 173 199 2,700  Level FlightAware ADS-B
03:46PM 40.4496 -74.0030 21° North 174 200 2,700  Level FlightAware ADS-B
03:47PM 40.4750 -73.9900 21° North 174 200 2,700  Level FlightAware
03:48PM 40.4960 -73.9790 22° Northeast 174 200 2,700  Level FlightAware
03:48PM 40.5150 -73.9700 20° North 173 199 2,700 -240 Level FlightAware
03:48PM 40.5370 -73.9560 26° Northeast 175 201 2,500 -540 Descending FlightAware
03:49PM 40.5470 -73.9480 31° Northeast 175 201 2,300 -960 Descending FlightAware
03:49PM 40.5690 -73.9300 32° Northeast 178 205 1,800 -1,020 Descending FlightAware
03:50PM 40.5860 -73.9160 32° Northeast 180 207 1,400 -660 Descending FlightAware
03:50PM 40.6070 -73.8980 33° Northeast 185 213 1,200 -540 Descending FlightAware
03:51PM 40.6280 -73.8820 30° Northeast 169 194 900 -900 Descending FlightAware
03:51PM 40.6460 -73.8690 29° Northeast 155 178 400 -960 Descending FlightAware
03:51PM 40.6560 -73.8590 37° Northeast 145 167 200 -540 Descending FlightAware
03:52PM 40.6632 -73.8459 54° Northeast 145 167 100 -420 Descending FlightAware ADS-B
03:53PM 40.6610 -73.7960 93° East 135 155 -120 Descending FlightAware
03:53PM 40.6570 -73.7890 127° Southeast 131 151  Level FlightAware